Time;durP1;ratioP1;P1;durP2;ratioP2;P2;SDS_P1;SDS_P2;PMS_P1;PMS_P2;Temp;Humidity;BMP_temperature;BMP_pressure;BME280_temperature;BME280_humidity;BME280_pressure;Samples;Min_cycle;Max_cycle;Signal;HPM_P1;HPM_P2
2022/09/17 00:01:18;;;;;;;7.40;4.80;;;;;;;11.30;75.07;96201.23;1714902;83;25736;-87
2022/09/17 00:03:55;;;;;;;6.75;4.92;;;;;;;11.25;75.17;96201.66;1715157;83;26000;-87
2022/09/17 00:06:24;;;;;;;6.37;4.87;;;;;;;11.26;75.43;96199.25;1715248;83;25846;-88
2022/09/17 00:08:52;;;;;;;9.03;5.05;;;;;;;11.30;75.48;96198.53;1714959;82;27361;-86
2022/09/17 00:11:24;;;;;;;6.62;4.55;;;;;;;11.34;75.46;96204.27;1714867;83;25815;-88
2022/09/17 00:13:52;;;;;;;10.23;4.87;;;;;;;11.34;75.41;96205.63;1714871;83;25807;-87
2022/09/17 00:16:33;;;;;;;9.20;4.95;;;;;;;11.34;75.39;96201.56;1714522;83;25986;-87
2022/09/17 00:19:01;;;;;;;5.92;4.62;;;;;;;11.32;75.39;96203.16;1713561;83;25296;-88
2022/09/17 00:21:28;;;;;;;6.45;4.75;;;;;;;11.30;75.39;96201.76;1712714;83;28210;-88
2022/09/17 00:24:02;;;;;;;6.78;4.55;;;;;;;11.29;75.50;96198.77;1714898;83;25740;-87
2022/09/17 00:26:31;;;;;;;7.60;4.92;;;;;;;11.29;75.47;96200.12;1715017;83;25753;-88
2022/09/17 00:28:58;;;;;;;9.43;4.78;;;;;;;11.25;75.51;96204.36;1714920;83;25727;-88
2022/09/17 00:31:27;;;;;;;6.42;4.80;;;;;;;11.16;75.57;96206.66;1714797;83;25795;-87
2022/09/17 00:33:54;;;;;;;8.15;4.15;;;;;;;11.08;75.66;96211.94;1690686;83;28394;-87
2022/09/17 00:36:22;;;;;;;5.12;4.22;;;;;;;11.09;75.83;96210.88;1718210;83;25774;-86
2022/09/17 00:38:52;;;;;;;6.45;4.37;;;;;;;11.09;75.84;96206.83;1719094;83;25760;-88
2022/09/17 00:41:20;;;;;;;7.72;4.25;;;;;;;11.05;75.78;96203.49;1719075;83;26158;-87
2022/09/17 00:43:52;;;;;;;5.05;4.15;;;;;;;10.98;75.82;96206.36;1718717;81;25920;-88
2022/09/17 00:46:35;;;;;;;6.17;4.72;;;;;;;10.91;75.96;96196.22;1748978;81;27299;-87
2022/09/17 00:49:13;;;;;;;5.62;4.50;;;;;;;10.89;76.03;96196.17;1733079;81;25708;-86
2022/09/17 00:51:45;;;;;;;7.12;4.28;;;;;;;10.85;76.11;96196.39;1731148;82;26491;-87
2022/09/17 00:54:12;;;;;;;6.08;4.67;;;;;;;10.89;76.34;96191.59;1731671;82;25933;-87
2022/09/17 00:56:42;;;;;;;9.50;4.62;;;;;;;10.91;76.39;96189.48;1727511;82;25672;-87
2022/09/17 00:59:09;;;;;;;8.03;4.28;;;;;;;10.92;76.36;96191.12;1728002;83;27428;-88
2022/09/17 01:01:36;;;;;;;5.25;4.17;;;;;;;10.95;76.36;96191.17;1727909;82;25694;-89
2022/09/17 01:04:03;;;;;;;9.28;4.90;;;;;;;10.94;76.39;96194.40;1728082;83;25678;-88
2022/09/17 01:06:47;;;;;;;6.90;4.60;;;;;;;10.91;76.36;96193.52;1728040;83;26060;-88
2022/09/17 01:09:49;;;;;;;7.87;4.53;;;;;;;10.86;76.37;96185.88;1687394;83;25864;-87
2022/09/17 01:12:35;;;;;;;5.13;4.50;;;;;;;10.85;76.52;96197.20;1728314;82;27352;-86
2022/09/17 01:15:16;;;;;;;7.37;4.95;;;;;;;10.83;76.60;96197.98;1727577;81;25725;-87
2022/09/17 01:18:09;;;;;;;4.58;4.17;;;;;;;10.86;76.65;96197.50;1727505;82;25791;-88
2022/09/17 01:21:23;;;;;;;6.35;4.80;;;;;;;10.87;76.75;96193.71;1727491;81;26802;-89
2022/09/17 01:24:04;;;;;;;5.87;4.55;;;;;;;10.84;76.75;96202.31;1632100;87;25884;-87
2022/09/17 01:27:05;;;;;;;5.03;4.47;;;;;;;10.83;76.82;96204.20;1664186;85;27623;-87
2022/09/17 01:29:59;;;;;;;6.37;4.42;;;;;;;10.81;76.78;96205.49;1660498;85;25817;-88
2022/09/17 01:32:58;;;;;;;7.30;4.50;;;;;;;10.77;76.87;96204.33;1660204;86;25959;-87
2022/09/17 01:35:54;;;;;;;5.67;4.17;;;;;;;10.76;77.00;96214.83;1660647;86;26063;-86
2022/09/17 01:38:29;;;;;;;9.03;4.70;;;;;;;10.77;77.06;96218.64;1659697;86;25739;-87
2022/09/17 01:41:18;;;;;;;6.53;4.70;;;;;;;10.77;77.08;96219.99;1660734;86;28323;-85
2022/09/17 01:44:02;;;;;;;6.25;4.60;;;;;;;10.74;77.11;96221.03;1660465;86;25839;-87
2022/09/17 01:46:39;;;;;;;6.78;4.90;;;;;;;10.74;77.25;96219.67;1660167;86;25886;-87
2022/09/17 01:49:07;;;;;;;7.28;4.85;;;;;;;10.76;77.33;96209.44;1660577;86;26940;-88
2022/09/17 01:51:41;;;;;;;9.78;5.20;;;;;;;10.79;77.33;96200.86;1660402;86;25886;-91
2022/09/17 01:54:21;;;;;;;7.37;4.75;;;;;;;10.82;77.34;96199.03;1660637;86;27557;-87
2022/09/17 01:56:56;;;;;;;8.00;4.90;;;;;;;10.79;77.36;96194.11;1673363;84;25854;-88
2022/09/17 01:59:28;;;;;;;8.43;5.30;;;;;;;10.76;77.29;96187.31;1676111;83;25684;-86
2022/09/17 02:02:09;;;;;;;6.97;4.50;;;;;;;10.70;77.29;96190.17;1720503;83;26075;-87
2022/09/17 02:04:41;;;;;;;5.00;4.50;;;;;;;10.64;77.31;96197.86;1697091;82;25945;-86
2022/09/17 02:07:18;;;;;;;6.45;4.55;;;;;;;10.63;77.41;96203.80;1737907;82;27400;-87
2022/09/17 02:09:50;;;;;;;5.25;4.15;;;;;;;10.65;77.40;96199.50;1738138;81;25879;-86
2022/09/17 02:12:21;;;;;;;5.53;3.92;;;;;;;10.63;77.33;96202.44;1729519;82;25447;-87
2022/09/17 02:14:52;;;;;;;4.58;3.75;;;;;;;10.64;77.42;96205.96;1738424;82;26000;-87
2022/09/17 02:17:49;;;;;;;6.80;4.33;;;;;;;10.60;77.31;96203.48;1737833;82;25897;-86
2022/09/17 02:20:17;;;;;;;7.80;4.05;;;;;;;10.58;77.30;96205.59;1738451;82;27531;-86
2022/09/17 02:22:55;;;;;;;5.42;4.20;;;;;;;10.57;77.22;96206.64;1738147;82;25958;-87
2022/09/17 02:25:39;;;;;;;4.53;4.12;;;;;;;10.52;77.12;96214.63;1736935;81;25811;-87
2022/09/17 02:28:20;;;;;;;7.92;4.22;;;;;;;10.42;77.16;96218.77;1738356;82;26051;-87
2022/09/17 02:30:46;;;;;;;8.08;4.08;;;;;;;10.40;77.21;96216.02;1738332;82;25874;-87
2022/09/17 02:33:14;;;;;;;4.45;4.05;;;;;;;10.35;77.16;96217.28;1738166;82;27413;-87
2022/09/17 02:35:43;;;;;;;7.37;4.22;;;;;;;10.33;77.08;96215.34;1738101;82;25697;-87
2022/09/17 02:38:10;;;;;;;6.60;4.75;;;;;;;10.30;77.08;96219.33;1738441;82;25801;-87
2022/09/17 02:40:48;;;;;;;6.03;4.17;;;;;;;10.26;77.01;96215.48;1738247;82;25985;-87
2022/09/17 02:43:25;;;;;;;7.40;4.45;;;;;;;10.24;77.00;96216.25;1738273;82;25736;-87
2022/09/17 02:46:21;;;;;;;7.17;4.17;;;;;;;10.21;77.03;96212.67;1738454;82;27444;-88
2022/09/17 02:49:36;;;;;;;7.28;4.22;;;;;;;10.18;76.94;96208.24;1679297;84;26021;-87
2022/09/17 02:52:17;;;;;;;4.65;3.75;;;;;;;10.10;77.00;96200.00;1679482;84;25878;-87
2022/09/17 02:54:49;;;;;;;5.87;3.87;;;;;;;10.04;76.96;96199.59;1679639;84;26137;-87
2022/09/17 02:57:38;;;;;;;5.65;4.17;;;;;;;10.00;76.93;96199.80;1662552;83;25750;-88
2022/09/17 03:00:17;;;;;;;5.37;4.08;;;;;;;9.92;77.01;96196.09;1662878;85;27575;-87
2022/09/17 03:03:14;;;;;;;4.90;3.70;;;;;;;9.85;77.06;96198.10;1663510;84;26171;-89
2022/09/17 03:05:43;;;;;;;4.80;3.55;;;;;;;9.84;77.16;96200.50;1662785;86;25933;-87
2022/09/17 03:08:17;;;;;;;6.12;3.92;;;;;;;9.82;77.21;96202.61;1662698;86;26809;-88
2022/09/17 03:10:43;;;;;;;8.18;3.90;;;;;;;9.81;77.27;96191.53;1662890;85;25860;-88
2022/09/17 03:13:10;;;;;;;5.75;3.70;;;;;;;9.78;77.30;96190.68;1663582;84;27320;-87
2022/09/17 03:15:36;;;;;;;4.40;3.62;;;;;;;9.74;77.41;96189.80;1663880;84;25779;-88
2022/09/17 03:18:03;;;;;;;4.55;3.83;;;;;;;9.75;77.49;96188.75;1662608;86;26608;-87
2022/09/17 03:20:30;;;;;;;4.80;3.72;;;;;;;9.78;77.56;96178.55;1662597;85;26936;-89
2022/09/17 03:22:56;;;;;;;9.45;4.50;;;;;;;9.77;77.60;96187.69;1667731;85;25833;-88
2022/09/17 03:25:23;;;;;;;4.72;3.77;;;;;;;9.72;77.65;96179.77;1681396;82;28164;-88
2022/09/17 03:27:51;;;;;;;7.33;4.00;;;;;;;9.71;77.66;96182.17;1730956;82;25877;-89
2022/09/17 03:30:19;;;;;;;5.97;3.72;;;;;;;9.70;77.79;96177.02;1732252;82;25795;-87
2022/09/17 03:32:46;;;;;;;5.45;3.75;;;;;;;9.70;77.79;96177.02;1735796;82;26618;-88
2022/09/17 03:35:12;;;;;;;4.65;3.40;;;;;;;9.69;77.78;96170.81;1735728;81;25695;-87
2022/09/17 03:37:39;;;;;;;7.78;3.77;;;;;;;9.71;77.74;96163.31;1735771;82;27196;-89
2022/09/17 03:40:07;;;;;;;5.25;3.50;;;;;;;9.65;77.60;96162.92;1735814;82;25779;-88
2022/09/17 03:42:33;;;;;;;7.37;4.35;;;;;;;9.57;77.62;96161.09;1735841;82;25950;-87
2022/09/17 03:45:00;;;;;;;6.42;4.42;;;;;;;9.52;77.79;96155.61;1735819;82;26642;-86
2022/09/17 03:47:26;;;;;;;6.75;3.75;;;;;;;9.51;77.88;96156.13;1735913;82;25715;-86
2022/09/17 03:49:53;;;;;;;5.22;4.03;;;;;;;9.51;77.91;96152.09;1735686;82;27309;-87
2022/09/17 03:52:19;;;;;;;5.40;4.90;;;;;;;9.53;77.92;96160.77;1735416;82;25693;-86
2022/09/17 03:54:47;;;;;;;6.17;4.47;;;;;;;9.55;77.90;96148.38;1735718;82;25693;-86
2022/09/17 03:57:13;;;;;;;4.83;4.33;;;;;;;9.55;77.89;96153.23;1735464;81;27050;-87
2022/09/17 03:59:40;;;;;;;7.67;4.72;;;;;;;9.54;77.83;96152.95;1735597;82;25783;-87
2022/09/17 04:02:07;;;;;;;8.53;5.33;;;;;;;9.55;77.85;96150.55;1735335;82;28043;-89
2022/09/17 04:04:33;;;;;;;7.87;4.28;;;;;;;9.52;77.81;96147.00;1735652;82;25769;-87
2022/09/17 04:07:00;;;;;;;6.28;4.50;;;;;;;9.47;77.84;96145.52;1735645;82;25811;-87
2022/09/17 04:09:26;;;;;;;7.25;4.40;;;;;;;9.45;77.82;96139.55;1735634;82;26047;-90
2022/09/17 04:11:53;;;;;;;4.83;4.35;;;;;;;9.45;77.85;96142.23;1735609;82;25723;-86
2022/09/17 04:14:19;;;;;;;7.42;4.37;;;;;;;9.44;77.81;96139.78;1735776;82;28231;-86
2022/09/17 04:16:46;;;;;;;5.65;4.50;;;;;;;9.43;77.70;96134.09;1735390;82;25736;-87
2022/09/17 04:19:13;;;;;;;5.72;4.53;;;;;;;9.36;77.45;96139.61;1735398;82;25749;-87
2022/09/17 04:21:40;;;;;;;9.95;4.22;;;;;;;9.29;77.52;96144.31;1735809;82;25992;-87
2022/09/17 04:24:06;;;;;;;7.00;4.00;;;;;;;9.26;77.55;96144.24;1735795;82;25685;-87
2022/09/17 04:26:33;;;;;;;7.97;4.40;;;;;;;9.22;77.47;96141.72;1735758;82;27356;-86
2022/09/17 04:29:00;;;;;;;8.05;4.80;;;;;;;9.18;77.52;96143.75;1735668;82;25654;-87
2022/09/17 04:31:26;;;;;;;6.45;4.33;;;;;;;9.16;77.57;96144.53;1735689;81;25906;-89
2022/09/17 04:33:53;;;;;;;4.55;3.98;;;;;;;9.14;77.60;96139.91;1735542;82;26078;-92
2022/09/17 04:36:20;;;;;;;6.85;4.30;;;;;;;9.12;77.56;96147.38;1735553;82;25807;-87
2022/09/17 04:38:49;;;;;;;4.87;3.75;;;;;;;9.07;77.39;96149.94;1735354;82;27431;-87
2022/09/17 04:41:16;;;;;;;6.47;4.30;;;;;;;9.01;77.50;96157.91;1735586;82;25717;-88
2022/09/17 04:43:43;;;;;;;6.75;4.85;;;;;;;9.00;77.58;96158.96;1735519;82;25314;-86
2022/09/17 04:46:09;;;;;;;6.20;5.58;;;;;;;8.99;77.72;96156.50;1735693;82;26569;-87
2022/09/17 04:48:36;;;;;;;10.13;6.20;;;;;;;8.96;77.80;96145.66;1735871;82;25785;-87
2022/09/17 04:51:03;;;;;;;10.82;5.80;;;;;;;8.98;77.85;96136.83;1735629;82;28286;-87
2022/09/17 04:53:30;;;;;;;7.87;5.58;;;;;;;8.99;77.88;96134.44;1735682;81;26012;-86
2022/09/17 04:55:57;;;;;;;7.47;6.22;;;;;;;9.02;77.88;96142.06;1735666;81;25754;-86
2022/09/17 04:58:23;;;;;;;9.05;5.20;;;;;;;9.04;77.88;96129.72;1735490;82;26244;-86
2022/09/17 05:00:50;;;;;;;6.53;5.08;;;;;;;9.01;77.92;96119.41;1735468;82;25785;-86
2022/09/17 05:03:17;;;;;;;6.12;4.40;;;;;;;9.04;77.95;96127.02;1735628;82;27448;-91
2022/09/17 05:05:44;;;;;;;5.50;4.42;;;;;;;9.05;77.96;96140.78;1735551;82;25789;-90
2022/09/17 05:08:10;;;;;;;5.92;4.25;;;;;;;9.08;77.99;96141.64;1735841;82;25757;-91
2022/09/17 05:10:37;;;;;;;8.38;5.00;;;;;;;9.10;78.04;96149.48;1735695;82;26064;-90
2022/09/17 05:13:04;;;;;;;7.62;4.50;;;;;;;9.12;78.08;96148.73;1735832;82;25765;-88
2022/09/17 05:15:30;;;;;;;5.83;4.25;;;;;;;9.12;78.14;96148.20;1735716;82;27448;-88
2022/09/17 05:17:57;;;;;;;9.03;4.20;;;;;;;9.15;78.22;96153.13;1735703;82;25791;-91
2022/09/17 05:20:23;;;;;;;4.85;4.22;;;;;;;9.17;78.17;96150.22;1736028;82;25712;-90
2022/09/17 05:22:51;;;;;;;7.50;4.97;;;;;;;9.20;78.23;96147.03;1735566;82;26048;-90
2022/09/17 05:25:24;;;;;;;11.38;6.33;;;;;;;9.21;78.30;96150.02;1735488;81;25752;-87
2022/09/17 05:27:55;;;;;;;8.10;5.70;;;;;;;9.21;78.37;96151.37;1735473;82;25849;-90
2022/09/17 05:30:22;;;;;;;6.03;5.28;;;;;;;9.24;78.52;96142.83;1735742;82;25831;-88
2022/09/17 05:32:50;;;;;;;6.62;5.30;;;;;;;9.29;78.61;96133.54;1735891;81;25711;-89
2022/09/17 05:35:17;;;;;;;8.75;5.97;;;;;;;9.35;78.70;96136.63;1735186;82;26008;-87
2022/09/17 05:37:43;;;;;;;7.60;5.72;;;;;;;9.40;78.76;96136.76;1735799;82;26063;-87
2022/09/17 05:40:10;;;;;;;5.15;4.70;;;;;;;9.46;78.76;96137.15;1735525;82;28115;-91
2022/09/17 05:42:37;;;;;;;7.78;5.70;;;;;;;9.52;78.70;96132.19;1735770;82;25771;-90
2022/09/17 05:45:05;;;;;;;6.12;5.42;;;;;;;9.58;78.69;96142.00;1735823;81;25736;-89
2022/09/17 05:47:31;;;;;;;7.58;5.00;;;;;;;9.63;78.79;96156.95;1735752;82;25977;-89
2022/09/17 05:49:58;;;;;;;6.62;5.00;;;;;;;9.70;78.78;96152.23;1735860;82;25672;-90
2022/09/17 05:52:28;;;;;;;9.50;5.78;;;;;;;9.77;78.76;96148.62;1735577;82;26861;-86
2022/09/17 05:54:56;;;;;;;10.80;6.15;;;;;;;9.83;78.80;96155.73;1735529;82;25934;-85
2022/09/17 05:57:23;;;;;;;7.40;5.72;;;;;;;9.89;78.96;96148.89;1735492;81;25799;-90
2022/09/17 05:59:49;;;;;;;7.05;4.97;;;;;;;9.96;79.09;96150.09;1753229;81;26094;-92
2022/09/17 06:02:16;;;;;;;8.78;5.08;;;;;;;10.01;79.08;96160.47;1716761;83;25777;-91
2022/09/17 06:04:42;;;;;;;8.33;5.53;;;;;;;10.04;78.89;96164.54;1736057;81;28148;-86
2022/09/17 06:07:09;;;;;;;6.65;5.87;;;;;;;10.09;78.85;96163.31;1735614;82;25691;-87
2022/09/17 06:09:36;;;;;;;9.25;5.60;;;;;;;10.12;78.78;96162.84;1735768;81;25957;-87
2022/09/17 06:12:04;;;;;;;7.08;5.97;;;;;;;10.16;78.86;96159.94;1735870;81;25984;-86
2022/09/17 06:14:31;;;;;;;9.63;7.25;;;;;;;10.22;78.89;96168.47;1736256;81;26297;-86
2022/09/17 06:16:57;;;;;;;15.85;10.82;;;;;;;10.29;78.94;96165.63;1735884;82;27431;-87
2022/09/17 06:19:24;;;;;;;17.10;10.70;;;;;;;10.37;79.00;96162.03;1735784;81;25809;-87
2022/09/17 06:21:51;;;;;;;17.92;12.53;;;;;;;10.46;79.05;96160.59;1735999;81;25825;-86
2022/09/17 06:24:17;;;;;;;19.52;12.70;;;;;;;10.54;79.12;96159.37;1735780;81;26837;-86
2022/09/17 06:26:44;;;;;;;18.02;12.85;;;;;;;10.63;79.20;96161.96;1736426;81;25709;-86
2022/09/17 06:29:13;;;;;;;16.10;11.05;;;;;;;10.73;79.22;96162.70;1735865;81;28150;-86
2022/09/17 06:31:41;;;;;;;12.35;10.03;;;;;;;10.82;79.24;96155.31;1736270;80;25775;-86
2022/09/17 06:34:07;;;;;;;19.12;10.53;;;;;;;10.93;79.11;96153.61;1735696;81;26222;-86
2022/09/17 06:36:34;;;;;;;10.68;7.78;;;;;;;11.03;78.99;96149.73;1735502;82;25987;-86
2022/09/17 06:39:00;;;;;;;11.68;6.80;;;;;;;11.12;78.82;96142.84;1735386;82;25780;-88
2022/09/17 06:41:27;;;;;;;11.20;7.33;;;;;;;11.23;78.87;96141.69;1735859;81;28026;-89
2022/09/17 06:43:54;;;;;;;8.28;6.47;;;;;;;11.32;78.94;96140.20;1735545;81;25798;-87
2022/09/17 06:46:20;;;;;;;8.43;6.08;;;;;;;11.40;78.90;96134.38;1735602;82;25834;-86
2022/09/17 06:48:47;;;;;;;7.80;6.55;;;;;;;11.51;78.83;96134.81;1735741;81;26744;-89
2022/09/17 06:51:13;;;;;;;8.90;6.55;;;;;;;11.62;78.72;96133.07;1736065;81;25730;-91
2022/09/17 06:53:40;;;;;;;10.88;6.42;;;;;;;11.73;78.58;96122.69;1736142;81;27819;-88
2022/09/17 06:56:08;;;;;;;10.70;5.97;;;;;;;11.85;78.49;96122.89;1739195;81;25764;-87
2022/09/17 06:58:37;;;;;;;7.72;5.80;;;;;;;11.97;78.32;96123.30;1717590;82;26214;-92
2022/09/17 07:01:06;;;;;;;6.03;4.95;;;;;;;12.08;78.07;96127.77;1749199;82;27017;-93
2022/09/17 07:03:33;;;;;;;10.85;5.00;;;;;;;12.17;77.84;96126.28;1733479;81;25724;-88
2022/09/17 07:06:00;;;;;;;6.83;5.10;;;;;;;12.24;77.61;96132.30;1732699;82;27451;-91
2022/09/17 07:08:28;;;;;;;8.03;4.40;;;;;;;12.29;77.49;96136.44;1732351;82;25712;-91
2022/09/17 07:10:57;;;;;;;6.20;3.60;;;;;;;12.41;77.17;96131.70;1732777;82;25648;-89
2022/09/17 07:13:25;;;;;;;4.17;2.87;;;;;;;12.51;76.81;96135.88;1733116;82;25996;-89
2022/09/17 07:15:55;;;;;;;2.67;2.47;;;;;;;12.60;76.62;96139.75;1733587;82;25754;-93
2022/09/17 07:18:22;;;;;;;3.65;2.87;;;;;;;12.74;75.94;96138.00;1733620;82;28155;-91
2022/09/17 07:20:58;;;;;;;3.17;2.85;;;;;;;12.84;75.43;96146.22;1734271;82;25821;-87
2022/09/17 07:23:28;;;;;;;4.20;2.65;;;;;;;12.96;75.10;96140.10;1732226;82;25661;-86
2022/09/17 07:25:59;;;;;;;4.08;2.83;;;;;;;13.04;74.71;96130.71;1733346;82;26035;-85
2022/09/17 07:28:27;;;;;;;2.65;2.20;;;;;;;13.13;74.36;96132.69;1732976;82;25305;-86
2022/09/17 07:30:54;;;;;;;2.77;2.15;;;;;;;13.20;73.96;96138.72;1733251;82;27403;-89
2022/09/17 07:33:25;;;;;;;3.20;2.62;;;;;;;13.29;73.48;96149.36;1733324;82;25660;-86
2022/09/17 07:36:01;;;;;;;2.37;2.15;;;;;;;13.45;73.45;96148.12;1732999;82;25283;-86
2022/09/17 07:38:30;;;;;;;3.37;2.52;;;;;;;13.58;72.58;96140.91;1731119;82;26018;-85
2022/09/17 07:41:00;;;;;;;2.70;2.20;;;;;;;13.70;72.36;96152.37;1730775;82;25693;-88
2022/09/17 07:43:30;;;;;;;3.58;2.17;;;;;;;13.82;71.69;96163.03;1738736;82;28262;-85
2022/09/17 07:45:58;;;;;;;4.42;1.98;;;;;;;13.89;71.53;96163.06;1734023;82;25784;-89
2022/09/17 07:48:26;;;;;;;3.02;2.12;;;;;;;13.97;71.24;96163.95;1733025;82;25283;-85
2022/09/17 07:50:53;;;;;;;2.77;1.75;;;;;;;14.02;70.67;96160.42;1733248;82;25969;-88
2022/09/17 07:53:19;;;;;;;3.55;1.60;;;;;;;14.06;70.38;96162.91;1733420;82;25780;-88
2022/09/17 07:55:58;;;;;;;4.28;2.20;;;;;;;14.14;70.08;96160.22;1712561;82;27361;-87
2022/09/17 07:58:35;;;;;;;2.85;1.87;;;;;;;14.21;69.68;96161.63;1732654;82;25834;-87
2022/09/17 08:01:09;;;;;;;2.22;1.87;;;;;;;14.23;69.57;96153.23;1733310;82;25738;-86
2022/09/17 08:03:38;;;;;;;1.85;1.75;;;;;;;14.25;69.14;96137.50;1733407;82;27016;-87
2022/09/17 08:06:14;;;;;;;4.00;1.98;;;;;;;14.25;69.29;96132.07;1732940;82;25738;-89
2022/09/17 08:08:41;;;;;;;2.40;1.90;;;;;;;14.29;68.93;96128.54;1730429;82;27399;-87
2022/09/17 08:11:15;;;;;;;4.70;2.17;;;;;;;14.28;68.47;96123.38;1730957;82;25800;-86
2022/09/17 08:13:48;;;;;;;3.50;2.00;;;;;;;14.29;68.25;96133.16;1738761;82;25728;-88
2022/09/17 08:16:14;;;;;;;;;;;;;;;14.33;67.98;96127.48;1738789;82;26684;-87
2022/09/17 08:18:43;;;;;;;5.37;1.98;;;;;;;14.33;67.37;96126.12;1732701;82;25905;-87
2022/09/17 08:21:13;;;;;;;2.35;2.15;;;;;;;14.37;67.82;96124.48;1732749;82;27356;-87
2022/09/17 08:23:42;;;;;;;2.25;1.85;;;;;;;14.46;67.53;96125.66;1730195;82;25754;-88
2022/09/17 08:26:17;;;;;;;2.17;1.80;;;;;;;14.49;67.01;96121.03;1730209;82;25753;-87
2022/09/17 08:28:53;;;;;;;5.05;2.12;;;;;;;14.52;66.90;96126.47;1710002;82;26046;-88
2022/09/17 08:31:44;;;;;;;2.52;1.87;;;;;;;14.63;66.62;96120.80;1732968;82;25863;-88
2022/09/17 08:34:11;;;;;;;1.70;1.60;;;;;;;14.73;66.56;96117.31;1731919;82;27480;-89
2022/09/17 08:36:38;;;;;;;2.95;2.58;;;;;;;14.78;66.21;96118.12;1732671;82;25776;-87
2022/09/17 08:39:05;;;;;;;2.70;2.10;;;;;;;14.89;65.78;96118.14;1732805;82;25520;-85
2022/09/17 08:41:57;;;;;;;5.70;2.00;;;;;;;15.02;65.71;96125.77;1732754;82;26040;-84
2022/09/17 08:44:31;;;;;;;2.87;1.55;;;;;;;15.18;65.55;96119.27;1675351;85;25767;-90
2022/09/17 08:47:05;;;;;;;4.58;1.60;;;;;;;15.28;64.80;96113.83;1675227;85;27224;-90
2022/09/17 08:49:52;;;;;;;2.37;1.55;;;;;;;15.33;64.31;96120.63;1674646;85;25804;-91
2022/09/17 08:52:57;;;;;;;3.85;1.65;;;;;;;15.31;63.89;96130.14;1674762;85;25949;-89
2022/09/17 08:55:45;;;;;;;2.92;1.65;;;;;;;15.31;63.52;96117.36;1675589;85;26614;-91
2022/09/17 08:58:34;;;;;;;3.37;1.45;;;;;;;15.44;63.74;96111.92;1666590;85;25326;-89
2022/09/17 09:01:26;;;;;;;2.72;1.80;;;;;;;15.53;63.61;96114.89;1655675;86;28107;-88
2022/09/17 09:04:04;;;;;;;3.08;1.72;;;;;;;15.58;63.59;96113.00;1656003;86;25756;-86
2022/09/17 09:06:41;;;;;;;3.22;1.70;;;;;;;15.55;63.44;96119.55;1655513;86;25911;-86
2022/09/17 09:09:17;;;;;;;2.35;1.20;;;;;;;15.48;63.14;96123.86;1655689;85;26059;-88
2022/09/17 09:11:47;;;;;;;3.10;1.45;;;;;;;15.40;62.83;96118.44;1655589;86;25882;-86
2022/09/17 09:14:28;;;;;;;3.30;1.55;;;;;;;15.35;63.04;96110.27;1655687;86;27456;-85
2022/09/17 09:16:56;;;;;;;4.35;2.20;;;;;;;15.37;62.77;96115.44;1663433;85;25874;-88
2022/09/17 09:19:33;;;;;;;4.85;2.92;;;;;;;15.37;62.16;96112.18;1717599;82;25759;-88
2022/09/17 09:22:24;;;;;;;5.00;2.70;;;;;;;15.31;61.97;96109.20;1734300;82;25998;-88
2022/09/17 09:25:25;;;;;;;3.52;2.10;;;;;;;15.18;62.08;96107.03;1734023;82;25732;-87
2022/09/17 09:28:26;;;;;;;5.62;2.83;;;;;;;15.06;62.45;96085.56;1731681;82;27397;-87
2022/09/17 09:31:17;;;;;;;3.22;2.05;;;;;;;15.04;62.65;96095.06;1728321;82;25722;-87
2022/09/17 09:33:45;;;;;;;2.72;2.08;;;;;;;15.05;62.28;96108.92;1728328;82;25835;-92
2022/09/17 09:36:20;;;;;;;3.33;1.77;;;;;;;15.04;61.82;96114.09;1728065;82;26051;-88
2022/09/17 09:39:05;;;;;;;5.45;3.17;;;;;;;14.97;61.54;96118.98;1727582;82;26017;-87
2022/09/17 09:41:46;;;;;;;4.58;2.77;;;;;;;14.88;61.54;96120.58;1715915;83;28346;-87
2022/09/17 09:44:15;;;;;;;4.72;2.45;;;;;;;14.89;61.55;96119.50;1727837;82;25227;-90
2022/09/17 09:46:59;;;;;;;8.35;3.15;;;;;;;14.98;61.43;96119.23;1728078;82;25787;-86
2022/09/17 09:50:07;;;;;;;7.00;2.70;;;;;;;15.02;61.79;96123.05;1722094;83;26761;-86
2022/09/17 09:52:48;;;;;;;3.58;1.98;;;;;;;15.07;61.70;96125.78;1728206;83;25859;-86
2022/09/17 09:55:52;;;;;;;2.58;1.72;;;;;;;15.09;61.19;96120.89;1728118;83;27510;-84
2022/09/17 09:58:24;;;;;;;2.10;1.50;;;;;;;15.10;61.00;96127.94;1729749;82;25968;-86
2022/09/17 10:00:50;;;;;;;2.12;1.70;;;;;;;15.07;60.85;96125.78;1726225;82;32649;-88
2022/09/17 10:03:31;;;;;;;1.60;1.50;;;;;;;15.04;60.72;96133.11;1732490;82;26061;-87
2022/09/17 10:06:03;;;;;;;1.62;1.52;;;;;;;15.01;60.35;96139.89;1733042;82;25690;-89
2022/09/17 10:08:36;;;;;;;2.98;2.00;;;;;;;14.98;60.33;96143.69;1732781;82;27457;-89
2022/09/17 10:11:14;;;;;;;2.80;1.65;;;;;;;15.02;60.36;96141.53;1732750;82;25917;-85
2022/09/17 10:13:42;;;;;;;2.22;2.02;;;;;;;15.12;60.39;96146.16;1732928;82;25685;-87
2022/09/17 10:16:25;;;;;;;6.12;1.52;;;;;;;15.24;60.13;96139.91;1733053;82;26844;-88
2022/09/17 10:19:13;;;;;;;2.20;1.62;;;;;;;15.32;59.64;96135.86;1732566;81;25794;-88
2022/09/17 10:21:42;;;;;;;2.12;1.72;;;;;;;15.37;59.70;96144.81;1732345;82;27800;-92
2022/09/17 10:24:29;;;;;;;2.17;1.72;;;;;;;15.46;58.62;96140.98;1732805;82;25809;-93
2022/09/17 10:27:09;;;;;;;4.35;2.27;;;;;;;15.42;58.96;96148.90;1733645;82;25697;-96
2022/09/17 10:29:46;;;;;;;3.45;2.10;;;;;;;15.29;59.05;96145.36;1635471;86;25288;-93
2022/09/17 10:32:16;;;;;;;3.50;2.27;;;;;;;15.21;59.43;96136.94;1635604;87;25778;-92
2022/09/17 10:35:06;;;;;;;3.33;2.10;;;;;;;15.18;59.88;96137.47;1633165;86;28229;-91
2022/09/17 10:37:46;;;;;;;5.35;2.42;;;;;;;15.14;59.54;96124.41;1631220;86;25919;-95
2022/09/17 10:40:25;;;;;;;2.72;2.00;;;;;;;14.93;59.28;96118.70;1632891;87;25869;-88
2022/09/17 10:43:19;;;;;;;2.15;1.85;;;;;;;14.87;59.66;96120.30;1633656;87;25976;-95
2022/09/17 10:45:57;;;;;;;4.95;2.15;;;;;;;14.90;59.51;96123.84;1632759;87;26372;-89
2022/09/17 10:48:29;;;;;;;3.98;2.40;;;;;;;14.89;59.47;96130.36;1632995;87;27472;-94
2022/09/17 10:50:58;;;;;;;4.50;2.12;;;;;;;14.85;58.99;96130.65;1612211;87;25358;-91
2022/09/17 10:53:39;;;;;;;5.95;3.42;;;;;;;14.71;58.89;96132.52;1633061;86;25849;-91
2022/09/17 10:56:20;;;;;;;9.03;3.50;;;;;;;14.72;59.27;96124.65;1631372;87;25834;-88
2022/09/17 10:59:17;;;;;;;4.15;2.87;;;;;;;14.75;59.28;96134.95;1638898;85;26440;-89
2022/09/17 11:02:05;;;;;;;3.72;2.25;;;;;;;14.80;58.86;96142.84;1680310;85;28289;-90
2022/09/17 11:04:58;;;;;;;3.72;2.10;;;;;;;14.77;59.28;96145.55;1643455;85;25852;-88
2022/09/17 11:07:52;;;;;;;4.28;1.98;;;;;;;14.80;59.13;96145.03;1700369;82;25881;-91
2022/09/17 11:10:27;;;;;;;2.62;2.08;;;;;;;14.77;59.21;96151.80;1730337;82;25997;-96
2022/09/17 11:13:24;;;;;;;6.75;2.15;;;;;;;14.80;59.16;96149.10;1708910;82;25722;-96
2022/09/17 11:16:02;;;;;;;3.62;1.82;;;;;;;14.72;58.84;96143.66;1709259;82;27334;-90
2022/09/17 11:19:08;;;;;;;2.45;2.00;;;;;;;14.69;59.05;96139.30;1738021;82;25832;-90
2022/09/17 11:21:52;;;;;;;3.45;1.80;;;;;;;14.71;59.23;96143.92;1709457;82;25784;-87
2022/09/17 11:24:36;;;;;;;4.70;1.87;;;;;;;14.80;59.12;96149.64;1720986;82;25988;-87
2022/09/17 11:28:00;;;;;;;3.10;1.92;;;;;;;14.86;58.97;96151.27;1716259;82;25976;-95
2022/09/17 11:30:41;;;;;;;4.42;2.05;;;;;;;14.88;58.39;96155.89;1739127;82;27430;-91
2022/09/17 11:33:22;;;;;;;3.77;2.22;;;;;;;14.88;58.47;96158.61;1736477;81;26212;-91
2022/09/17 11:35:58;;;;;;;2.35;1.62;;;;;;;14.95;58.53;96158.65;1717240;82;25257;-90
2022/09/17 11:38:42;;;;;;;4.10;1.70;;;;;;;14.98;58.47;96165.42;1717665;82;26202;-95
2022/09/17 11:41:16;;;;;;;2.35;1.57;;;;;;;15.00;58.13;96155.11;1735793;82;25719;-94
2022/09/17 11:44:06;;;;;;;2.30;1.50;;;;;;;15.03;58.16;96151.86;1735651;82;28447;-89
2022/09/17 11:46:43;;;;;;;2.02;1.70;;;;;;;15.02;57.93;96143.43;1735301;82;25857;-89
2022/09/17 11:49:24;;;;;;;2.62;1.30;;;;;;;15.00;57.93;96136.08;1735894;82;25871;-92
2022/09/17 11:51:56;;;;;;;5.35;1.62;;;;;;;15.06;57.65;96138.55;1713605;83;25997;-91
2022/09/17 11:54:32;;;;;;;3.22;1.85;;;;;;;15.17;57.22;96131.22;1748905;82;25728;-90
2022/09/17 11:57:10;;;;;;;3.37;1.75;;;;;;;15.17;57.47;96131.22;1717559;81;27371;-89
2022/09/17 12:00:05;;;;;;;3.27;1.42;;;;;;;15.23;57.59;96132.84;1740377;81;26373;-92
2022/09/17 12:02:48;;;;;;;5.65;2.52;;;;;;;15.28;57.63;96127.95;1745517;82;25770;-91
2022/09/17 12:05:28;;;;;;;3.62;1.70;;;;;;;15.33;57.28;96119.81;1745283;81;25982;-96
2022/09/17 12:08:22;;;;;;;2.63;1.90;;;;;;;15.36;56.95;96119.25;1745623;81;26098;-92